createdAt,value
2018-05-21T00:02:13.583Z,13.30
2018-05-21T00:04:40.602Z,13.30
2018-05-21T00:07:10.746Z,13.30
2018-05-21T00:09:38.003Z,13.20
2018-05-21T00:14:32.953Z,12.70
2018-05-21T00:16:59.936Z,12.60
2018-05-21T00:19:26.966Z,12.50
2018-05-21T00:21:53.950Z,12.50
2018-05-21T00:24:20.945Z,12.60
2018-05-21T00:26:49.881Z,12.70
2018-05-21T00:29:14.975Z,12.80
2018-05-21T00:31:41.954Z,12.80
2018-05-21T00:34:09.913Z,12.60
2018-05-21T00:36:36.898Z,12.50
2018-05-21T00:41:42.075Z,13.10
2018-05-21T00:44:09.065Z,12.60
2018-05-21T00:46:36.045Z,12.50
2018-05-21T00:49:03.056Z,12.50
2018-05-21T00:51:30.039Z,12.50
2018-05-21T00:53:58.888Z,12.50
2018-05-21T00:56:24.050Z,12.40
2018-05-21T00:58:51.033Z,12.40
2018-05-21T01:01:18.023Z,12.40
2018-05-21T01:03:45.054Z,12.30
2018-05-21T01:06:12.035Z,12.30
2018-05-21T01:08:39.018Z,12.30
2018-05-21T01:11:06.114Z,12.40
2018-05-21T01:13:33.131Z,12.40
2018-05-21T01:16:00.106Z,12.40
2018-05-21T01:18:27.154Z,12.40
2018-05-21T01:20:54.133Z,12.30
2018-05-21T01:23:21.112Z,12.40
2018-05-21T01:25:48.121Z,12.30
2018-05-21T01:28:15.104Z,12.30
2018-05-21T01:30:42.092Z,12.30
2018-05-21T01:33:09.121Z,12.20
2018-05-21T01:35:36.098Z,12.20
2018-05-21T01:40:42.527Z,12.20
2018-05-21T01:43:09.511Z,12.20
2018-05-21T01:45:36.498Z,12.20
2018-05-21T01:48:03.510Z,12.20
2018-05-21T01:50:30.486Z,12.30
2018-05-21T01:53:01.238Z,12.30
2018-05-21T01:55:39.688Z,12.20
2018-05-21T02:03:00.450Z,12.10
2018-05-21T02:05:27.429Z,12.10
2018-05-21T02:07:54.454Z,12.00
2018-05-21T02:10:22.392Z,11.80
2018-05-21T02:15:16.506Z,11.60
2018-05-21T02:17:43.553Z,11.70
2018-05-21T02:20:13.356Z,11.50
2018-05-21T02:22:37.612Z,11.50
2018-05-21T02:25:04.627Z,11.50
2018-05-21T02:27:32.449Z,11.50
2018-05-21T02:29:59.462Z,11.60
2018-05-21T02:32:26.451Z,11.50
2018-05-21T02:34:53.444Z,11.50
2018-05-21T02:37:20.478Z,11.50
2018-05-21T02:39:47.465Z,11.30
2018-05-21T02:42:14.440Z,11.30
2018-05-21T02:44:41.457Z,11.30
2018-05-21T02:47:08.440Z,11.40
2018-05-21T02:49:36.678Z,11.40
2018-05-21T02:52:03.705Z,11.50
2018-05-21T02:54:30.696Z,11.40
2018-05-21T02:56:57.677Z,11.40
2018-05-21T02:59:24.700Z,11.40
2018-05-21T03:01:51.684Z,11.40
2018-05-21T03:04:18.679Z,11.40
2018-05-21T03:06:45.705Z,11.30
2018-05-21T03:09:12.680Z,11.30
2018-05-21T03:11:39.678Z,11.30
2018-05-21T03:14:06.692Z,11.30
2018-05-21T03:19:12.185Z,11.00
2018-05-21T03:21:39.174Z,11.00
2018-05-21T03:24:06.147Z,11.00
2018-05-21T03:26:33.168Z,11.00
2018-05-21T03:29:00.147Z,10.90
2018-05-21T03:31:27.128Z,10.90
2018-05-21T03:33:54.151Z,11.00
2018-05-21T03:36:21.127Z,11.00
2018-05-21T03:38:48.111Z,11.10
2018-05-21T03:41:15.134Z,11.10
2018-05-21T03:43:42.112Z,11.10
2018-05-21T03:46:09.095Z,11.10
2018-05-21T03:48:36.122Z,11.10
2018-05-21T03:51:04.064Z,11.10
2018-05-21T03:53:31.013Z,11.00
2018-05-21T03:55:58.021Z,10.70
2018-05-21T03:58:36.752Z,10.80
2018-05-21T04:01:15.522Z,10.70
2018-05-21T04:03:54.360Z,10.70
2018-05-21T04:06:22.389Z,10.80
2018-05-21T04:08:49.374Z,10.80
2018-05-21T04:11:16.980Z,10.80
2018-05-21T04:13:44.006Z,10.70
2018-05-21T04:16:10.991Z,10.80
2018-05-21T04:18:38.047Z,10.80
2018-05-21T04:23:44.944Z,10.90
2018-05-21T04:26:11.986Z,11.00
2018-05-21T04:28:38.955Z,11.00
2018-05-21T04:31:06.907Z,11.20
2018-05-21T04:33:33.941Z,11.10
2018-05-21T04:36:00.910Z,11.10
2018-05-21T04:38:27.891Z,11.20
2018-05-21T04:40:54.916Z,11.30
2018-05-21T04:43:21.922Z,11.40
2018-05-21T04:45:49.714Z,11.50
2018-05-21T04:48:16.727Z,11.50
2018-05-21T04:53:11.680Z,11.40
2018-05-21T04:55:38.721Z,11.00
2018-05-21T04:58:05.721Z,11.20
2018-05-21T05:00:32.700Z,11.60
2018-05-21T05:05:30.845Z,11.60
2018-05-21T05:07:57.820Z,11.80
2018-05-21T05:10:26.868Z,12.00
2018-05-21T05:12:51.836Z,12.20
2018-05-21T05:15:19.627Z,12.50
2018-05-21T05:17:46.646Z,12.50
2018-05-21T05:20:13.620Z,12.40
2018-05-21T05:22:40.602Z,12.80
2018-05-21T05:25:07.684Z,13.00
2018-05-21T05:27:34.668Z,13.10
2018-05-21T05:30:01.654Z,13.20
2018-05-21T05:32:28.661Z,13.50
2018-05-21T05:34:57.637Z,13.40
2018-05-21T05:40:05.126Z,13.70
2018-05-21T05:42:32.165Z,13.70
2018-05-21T05:44:59.148Z,13.70
2018-05-21T05:47:26.212Z,14.10
2018-05-21T05:49:53.192Z,14.10
2018-05-21T05:52:20.181Z,13.00
2018-05-21T05:54:48.948Z,13.40
2018-05-21T05:57:15.923Z,13.20
2018-05-21T06:02:10.023Z,13.30
2018-05-21T06:04:37.010Z,13.40
2018-05-21T06:07:03.996Z,13.80
2018-05-21T06:09:34.029Z,13.70
2018-05-21T06:11:58.123Z,13.90
2018-05-21T06:14:25.110Z,13.50
2018-05-21T06:16:52.142Z,14.10
2018-05-21T06:19:19.129Z,14.40
2018-05-21T06:21:46.121Z,14.60
2018-05-21T06:24:13.143Z,14.40
2018-05-21T06:26:40.166Z,13.80
2018-05-21T06:31:34.280Z,14.90
2018-05-21T06:34:01.882Z,14.90
2018-05-21T06:36:29.798Z,15.70
2018-05-21T06:38:56.818Z,16.10
2018-05-21T06:41:23.800Z,15.90
2018-05-21T06:43:50.801Z,15.90
2018-05-21T06:46:18.674Z,16.00
2018-05-21T06:48:45.654Z,15.70
2018-05-21T06:51:12.733Z,16.10
2018-05-21T06:53:39.696Z,16.40
2018-05-21T06:58:45.319Z,16.00
2018-05-21T07:01:12.367Z,16.70
2018-05-21T07:03:39.378Z,17.20
2018-05-21T07:08:33.472Z,17.70
2018-05-21T07:11:01.431Z,17.30
2018-05-21T07:13:28.446Z,17.00
2018-05-21T07:15:55.439Z,17.40
2018-05-21T07:20:52.851Z,17.60
2018-05-21T07:23:19.833Z,18.10
2018-05-21T07:25:46.830Z,18.30
2018-05-21T07:28:13.863Z,18.20
2018-05-21T07:30:40.860Z,18.60
2018-05-21T07:33:07.845Z,18.50
2018-05-21T07:35:34.890Z,18.70
2018-05-21T07:38:01.880Z,19.10
2018-05-21T07:40:28.880Z,19.10
2018-05-21T07:42:55.897Z,18.90
2018-05-21T07:50:32.710Z,19.60
2018-05-21T07:55:26.774Z,20.10
2018-05-21T07:57:53.809Z,19.90
2018-05-21T08:03:01.001Z,19.60
2018-05-21T08:05:27.982Z,20.10
2018-05-21T08:10:35.637Z,20.00
2018-05-21T08:13:02.662Z,19.70
2018-05-21T08:15:29.636Z,20.00
2018-05-21T08:17:56.627Z,20.20
2018-05-21T08:20:23.763Z,20.50
2018-05-21T08:22:50.753Z,20.30
2018-05-21T08:25:17.756Z,20.90
2018-05-21T08:27:44.821Z,20.90
2018-05-21T08:30:11.811Z,21.00
2018-05-21T08:32:38.800Z,21.10
2018-05-21T08:35:05.863Z,21.10
2018-05-21T08:37:32.864Z,21.60
2018-05-21T08:39:59.848Z,21.80
2018-05-21T08:42:26.869Z,21.70
2018-05-21T08:44:53.844Z,22.10
2018-05-21T08:47:20.829Z,22.20
2018-05-21T08:49:48.633Z,22.10
2018-05-21T08:52:15.621Z,22.10
2018-05-21T08:54:42.598Z,22.80
2018-05-21T08:57:14.193Z,22.90
2018-05-21T08:59:41.179Z,22.70
2018-05-21T09:02:08.175Z,22.50
2018-05-21T09:04:35.293Z,23.00
2018-05-21T09:07:02.189Z,22.80
2018-05-21T09:09:31.065Z,23.50
2018-05-21T09:11:58.085Z,23.80
2018-05-21T09:14:25.067Z,22.70
2018-05-21T09:16:52.051Z,22.50
2018-05-21T09:19:20.026Z,23.30
2018-05-21T09:24:25.574Z,24.30
2018-05-21T09:26:52.518Z,24.70
2018-05-21T09:29:19.504Z,24.70
2018-05-21T09:31:47.366Z,24.70
2018-05-21T09:34:14.370Z,24.40
2018-05-21T09:36:41.355Z,24.50
2018-05-21T09:39:08.436Z,24.70
2018-05-21T09:41:36.348Z,25.30
2018-05-21T09:44:03.325Z,25.80
2018-05-21T09:51:25.235Z,25.00
2018-05-21T09:53:52.288Z,24.60
2018-05-21T09:56:21.390Z,25.40
2018-05-21T09:58:48.374Z,25.80
2018-05-21T10:01:15.410Z,26.40
2018-05-21T10:03:42.380Z,26.60
2018-05-21T10:06:09.354Z,27.40
2018-05-21T10:08:36.381Z,27.60
2018-05-21T10:11:03.359Z,27.60
2018-05-21T10:13:30.347Z,27.60
2018-05-21T10:15:57.363Z,26.90
2018-05-21T10:18:24.344Z,26.80
2018-05-21T10:20:51.355Z,27.20
2018-05-21T10:23:18.375Z,26.80
2018-05-21T10:25:52.464Z,26.70
2018-05-21T10:28:20.648Z,26.80
2018-05-21T10:30:47.626Z,26.50
2018-05-21T10:33:14.605Z,26.90
2018-05-21T10:35:41.614Z,27.20
2018-05-21T10:40:47.125Z,27.60
2018-05-21T10:43:14.107Z,27.50
2018-05-21T10:45:41.088Z,27.30
2018-05-21T10:50:35.197Z,27.80
2018-05-21T10:53:02.173Z,27.70
2018-05-21T10:55:29.232Z,27.70
2018-05-21T10:57:58.205Z,27.00
2018-05-21T11:00:25.244Z,27.90
2018-05-21T11:02:52.317Z,28.30
2018-05-21T11:05:20.240Z,28.00
2018-05-21T11:07:47.249Z,27.50
2018-05-21T11:12:41.355Z,28.50
2018-05-21T11:15:08.349Z,28.30
2018-05-21T11:17:35.363Z,28.30
2018-05-21T11:20:02.373Z,28.40
2018-05-21T11:24:56.484Z,28.80
2018-05-21T11:27:23.467Z,27.90
2018-05-21T11:29:50.463Z,26.80
2018-05-21T11:32:17.497Z,27.70
2018-05-21T11:34:44.472Z,27.90
2018-05-21T11:37:11.455Z,28.40
2018-05-21T11:39:38.513Z,28.80
2018-05-21T11:42:05.511Z,28.70
2018-05-21T11:44:32.505Z,28.80
2018-05-21T11:46:59.531Z,28.90
2018-05-21T11:49:26.524Z,28.70
2018-05-21T11:51:53.510Z,27.60
2018-05-21T11:56:59.073Z,27.70
2018-05-21T11:59:26.148Z,27.70
2018-05-21T12:01:53.388Z,27.30
2018-05-21T12:04:20.515Z,27.10
2018-05-21T12:06:47.928Z,27.00
2018-05-21T12:09:14.922Z,27.10
2018-05-21T12:11:41.937Z,27.30
2018-05-21T12:14:08.981Z,27.60
2018-05-21T12:16:36.168Z,27.20
2018-05-21T12:19:03.000Z,26.40
2018-05-21T12:21:30.042Z,26.40
2018-05-21T12:23:57.049Z,25.90
2018-05-21T12:26:24.895Z,26.50
2018-05-21T12:31:30.039Z,26.60
2018-05-21T12:33:57.111Z,27.30
2018-05-21T12:38:51.226Z,27.50
2018-05-21T12:41:18.278Z,27.00
2018-05-21T12:43:45.604Z,26.80
2018-05-21T12:46:12.635Z,26.30
2018-05-21T12:48:39.677Z,27.10
2018-05-21T12:51:06.673Z,26.50
2018-05-21T12:53:33.700Z,26.00
2018-05-21T12:58:27.854Z,25.50
2018-05-21T13:00:56.550Z,26.00
2018-05-21T13:03:23.585Z,25.60
2018-05-21T13:05:50.608Z,25.60
2018-05-21T13:08:17.622Z,25.50
2018-05-21T13:10:44.674Z,25.50
2018-05-21T13:13:11.684Z,25.80
2018-05-21T13:15:38.706Z,26.40
2018-05-21T13:18:09.421Z,26.30
2018-05-21T13:20:37.082Z,26.90
2018-05-21T13:23:04.110Z,26.30
2018-05-21T13:25:31.152Z,26.60
2018-05-21T13:47:06.871Z,26.30
2018-05-21T13:49:33.849Z,26.40
2018-05-21T13:52:00.856Z,26.60
2018-05-21T13:54:31.404Z,25.90
2018-05-21T13:56:58.413Z,25.90
2018-05-21T13:59:25.417Z,26.30
2018-05-21T14:01:52.461Z,26.60
2018-05-21T14:04:19.532Z,26.00
2018-05-21T14:06:46.532Z,25.80
2018-05-21T14:17:30.671Z,25.20
2018-05-21T14:19:57.722Z,25.30
2018-05-21T14:22:25.017Z,25.60
2018-05-21T14:30:30.635Z,25.60
2018-05-21T14:35:26.945Z,25.90
2018-05-21T14:40:31.181Z,25.80
2018-05-21T14:42:58.171Z,25.90
2018-05-21T14:45:25.183Z,25.30
2018-05-21T14:47:52.219Z,25.50
2018-05-21T14:55:37.216Z,25.80
2018-05-21T14:58:04.281Z,26.30
2018-05-21T15:00:31.269Z,26.20
2018-05-21T15:02:58.264Z,26.20
2018-05-21T15:05:25.277Z,26.50
2018-05-21T15:07:52.261Z,26.50
2018-05-21T15:10:19.245Z,26.80
2018-05-21T15:12:46.272Z,26.70
2018-05-21T15:15:13.264Z,26.30
2018-05-21T15:17:41.846Z,26.60
2018-05-21T15:22:48.763Z,26.80
2018-05-21T15:25:15.832Z,26.80
2018-05-21T15:27:42.834Z,26.60
2018-05-21T15:35:31.307Z,25.60
2018-05-21T15:37:58.326Z,25.30
2018-05-21T15:40:25.348Z,25.50
2018-05-21T15:42:52.374Z,24.70
2018-05-21T15:48:01.058Z,24.70
2018-05-21T15:50:28.273Z,24.70
2018-05-21T15:55:39.353Z,24.70
2018-05-21T15:58:06.361Z,24.50
2018-05-21T16:00:33.383Z,24.40
2018-05-21T16:03:00.460Z,24.40
2018-05-21T16:05:27.460Z,24.40
2018-05-21T16:07:54.521Z,24.30
2018-05-21T16:10:21.585Z,24.30
2018-05-21T16:12:48.618Z,24.20
2018-05-21T16:15:15.638Z,24.30
2018-05-21T16:17:43.254Z,24.30
2018-05-21T16:20:10.282Z,24.50
2018-05-21T16:22:37.323Z,24.40
2018-05-21T16:25:04.406Z,24.20
2018-05-21T16:27:31.435Z,24.10
2018-05-21T16:29:58.482Z,24.20
2018-05-21T16:32:25.567Z,24.30
2018-05-21T16:34:52.633Z,24.00
2018-05-21T16:37:20.362Z,24.00
2018-05-21T16:39:47.484Z,23.90
2018-05-21T16:42:15.411Z,23.80
2018-05-21T16:44:42.440Z,23.70
2018-05-21T16:47:09.861Z,24.00
2018-05-21T16:49:36.898Z,24.00
2018-05-21T16:52:07.713Z,23.70
2018-05-21T16:54:33.624Z,23.80
2018-05-21T16:57:00.701Z,23.80
2018-05-21T17:06:52.362Z,23.30
2018-05-21T17:09:20.295Z,23.40
2018-05-21T17:11:51.456Z,23.40
2018-05-21T17:17:00.778Z,23.30
2018-05-21T17:19:27.813Z,23.30
2018-05-21T17:21:54.804Z,23.50
2018-05-21T17:24:21.840Z,23.80
2018-05-21T17:26:48.887Z,24.00
2018-05-21T17:29:15.933Z,24.00
2018-05-21T17:31:42.920Z,23.60
2018-05-21T17:36:48.072Z,23.70
2018-05-21T17:39:15.099Z,23.80
2018-05-21T17:41:43.058Z,23.90
2018-05-21T17:44:10.054Z,24.00
2018-05-21T17:46:38.872Z,23.90
2018-05-21T17:49:05.869Z,23.40
2018-05-21T17:51:33.812Z,23.30
2018-05-21T17:54:00.955Z,23.10
2018-05-21T17:56:27.950Z,22.90
2018-05-21T17:58:54.957Z,22.80
2018-05-21T18:01:21.999Z,22.70
2018-05-21T18:03:49.044Z,22.50
2018-05-21T18:06:16.009Z,22.40
2018-05-21T18:08:45.294Z,22.40
2018-05-21T18:11:12.241Z,22.40
2018-05-21T18:13:39.252Z,22.20
2018-05-21T18:16:06.331Z,22.40
2018-05-21T18:21:01.096Z,22.50
2018-05-21T18:23:28.148Z,22.40
2018-05-21T18:25:56.118Z,22.30
2018-05-21T18:28:23.122Z,22.30
2018-05-21T18:30:50.168Z,22.20
2018-05-21T18:33:17.208Z,22.10
2018-05-21T18:38:25.050Z,21.60
2018-05-21T18:40:51.916Z,21.50
2018-05-21T18:43:18.932Z,21.50
2018-05-21T18:45:45.959Z,21.50
2018-05-21T18:48:14.052Z,21.40
2018-05-21T18:50:41.049Z,21.30
2018-05-21T18:53:08.072Z,21.10
2018-05-21T18:55:35.066Z,21.20
2018-05-21T18:58:02.064Z,21.30
2018-05-21T19:00:29.096Z,21.10
2018-05-21T19:02:56.206Z,21.20
2018-05-21T19:05:23.188Z,21.10
2018-05-21T19:07:50.230Z,21.10
2018-05-21T19:10:18.164Z,21.00
2018-05-21T19:12:45.147Z,20.90
2018-05-21T19:15:12.204Z,21.00
2018-05-21T19:17:39.155Z,21.00
2018-05-21T19:22:33.244Z,21.00
2018-05-21T19:25:00.223Z,20.80
2018-05-21T19:27:27.255Z,20.70
2018-05-21T19:29:54.315Z,20.70
2018-05-21T19:32:21.310Z,20.60
2018-05-21T19:34:48.294Z,20.60
2018-05-21T19:37:15.307Z,20.70
2018-05-21T19:39:43.396Z,20.60
2018-05-21T19:42:10.385Z,20.50
2018-05-21T19:44:37.418Z,20.60
2018-05-21T19:47:04.424Z,20.50
2018-05-21T19:49:31.409Z,20.30
2018-05-21T19:51:58.424Z,20.20
2018-05-21T19:57:03.942Z,19.90
2018-05-21T19:59:30.930Z,19.90
2018-05-21T20:01:57.934Z,20.00
2018-05-21T20:04:25.000Z,19.90
2018-05-21T20:06:51.996Z,19.80
2018-05-21T20:09:18.986Z,19.60
2018-05-21T20:11:46.002Z,19.70
2018-05-21T20:14:13.019Z,19.40
2018-05-21T20:16:40.103Z,19.60
2018-05-21T20:19:07.118Z,19.60
2018-05-21T20:21:35.505Z,19.50
2018-05-21T20:26:29.564Z,19.30
2018-05-21T20:28:56.543Z,19.30
2018-05-21T20:31:23.574Z,19.40
2018-05-21T20:33:52.442Z,19.50
2018-05-21T20:36:19.440Z,19.40
2018-05-21T20:38:46.488Z,19.10
2018-05-21T20:41:13.512Z,19.20
2018-05-21T20:43:40.509Z,19.20
2018-05-21T20:46:08.345Z,19.10
2018-05-21T20:48:35.404Z,19.00
2018-05-21T20:51:02.397Z,18.70
2018-05-21T20:53:30.435Z,18.70
2018-05-21T20:55:57.680Z,18.80
2018-05-21T21:00:51.751Z,18.80
2018-05-21T21:03:18.932Z,18.70
2018-05-21T21:05:45.935Z,18.80
2018-05-21T21:08:12.931Z,18.70
2018-05-21T21:10:40.013Z,18.60
2018-05-21T21:13:07.054Z,18.60
2018-05-21T21:15:34.090Z,18.40
2018-05-21T21:18:01.149Z,18.30
2018-05-21T21:20:29.036Z,18.40
2018-05-21T21:25:34.545Z,18.30
2018-05-21T21:28:01.550Z,18.40
2018-05-21T21:30:28.523Z,18.20
2018-05-21T21:32:55.578Z,18.40
2018-05-21T21:35:22.565Z,18.40
2018-05-21T21:37:49.565Z,18.40
2018-05-21T21:40:16.626Z,18.30
2018-05-21T21:42:43.618Z,18.20
2018-05-21T21:45:10.599Z,18.30
2018-05-21T21:47:37.628Z,18.20
2018-05-21T21:52:31.696Z,18.20
2018-05-21T21:54:58.729Z,18.20
2018-05-21T21:57:25.719Z,18.10
2018-05-21T21:59:52.744Z,17.80
2018-05-21T22:02:19.778Z,17.80
2018-05-21T22:04:46.765Z,17.90
2018-05-21T22:09:52.043Z,17.50
2018-05-21T22:12:19.043Z,17.70
2018-05-21T22:14:46.032Z,17.80
2018-05-21T22:17:13.057Z,17.80
2018-05-21T22:19:40.037Z,17.50
2018-05-21T22:22:07.024Z,17.60
2018-05-21T22:24:34.041Z,17.60
2018-05-21T22:27:01.023Z,17.50
2018-05-21T22:29:28.001Z,17.50
2018-05-21T22:31:55.034Z,17.40
2018-05-21T22:34:22.024Z,17.50
2018-05-21T22:36:49.035Z,17.50
2018-05-21T22:39:16.047Z,17.50
2018-05-21T22:44:10.940Z,17.50
2018-05-21T22:49:05.034Z,17.50
2018-05-21T22:51:32.023Z,17.40
2018-05-21T22:53:59.048Z,17.40
2018-05-21T22:56:26.033Z,17.40
2018-05-21T22:58:53.010Z,17.40
2018-05-21T23:01:20.026Z,17.30
2018-05-21T23:06:25.220Z,17.30
2018-05-21T23:08:52.210Z,17.30
2018-05-21T23:11:19.191Z,17.40
2018-05-21T23:13:46.207Z,17.50
2018-05-21T23:16:13.986Z,17.40
2018-05-21T23:18:41.660Z,17.30
2018-05-21T23:21:09.511Z,17.30
2018-05-21T23:23:36.496Z,17.20
2018-05-21T23:26:03.490Z,17.10
2018-05-21T23:28:30.512Z,17.10
2018-05-21T23:30:57.496Z,16.90
2018-05-21T23:33:26.379Z,16.80
2018-05-21T23:35:52.399Z,16.80
2018-05-21T23:38:19.380Z,16.40
2018-05-21T23:40:46.686Z,16.30
2018-05-21T23:43:13.698Z,16.20
2018-05-21T23:45:40.688Z,16.10
2018-05-21T23:48:07.676Z,16.10
2018-05-21T23:50:34.714Z,15.90
2018-05-21T23:55:31.849Z,16.20
2018-05-21T23:57:58.876Z,16.20
